sensor_id;sensor_type;location;lat;lon;timestamp;temperature;humidity
68485;DHT22;55472;50.060;21.960;2023-10-08T00:01:09;12.80;99.90
68485;DHT22;55472;50.060;21.960;2023-10-08T00:03:42;12.70;99.90
68485;DHT22;55472;50.060;21.960;2023-10-08T00:06:18;12.70;99.90
68485;DHT22;55472;50.060;21.960;2023-10-08T00:08:48;12.70;99.90
68485;DHT22;55472;50.060;21.960;2023-10-08T00:11:15;12.70;99.90
68485;DHT22;55472;50.060;21.960;2023-10-08T00:13:42;12.60;99.90
68485;DHT22;55472;50.060;21.960;2023-10-08T00:16:10;12.60;99.90
68485;DHT22;55472;50.060;21.960;2023-10-08T00:18:43;12.60;99.90
68485;DHT22;55472;50.060;21.960;2023-10-08T00:21:15;12.60;99.90
68485;DHT22;55472;50.060;21.960;2023-10-08T00:23:43;12.50;99.90
68485;DHT22;55472;50.060;21.960;2023-10-08T00:26:19;12.50;99.90
68485;DHT22;55472;50.060;21.960;2023-10-08T00:29:01;12.50;99.90
68485;DHT22;55472;50.060;21.960;2023-10-08T00:31:33;12.40;99.90
68485;DHT22;55472;50.060;21.960;2023-10-08T00:34:07;12.50;99.90
68485;DHT22;55472;50.060;21.960;2023-10-08T00:36:41;12.40;99.90
68485;DHT22;55472;50.060;21.960;2023-10-08T00:39:09;12.40;99.90
68485;DHT22;55472;50.060;21.960;2023-10-08T00:41:43;12.40;99.90
68485;DHT22;55472;50.060;21.960;2023-10-08T00:44:14;12.40;99.90
68485;DHT22;55472;50.060;21.960;2023-10-08T00:46:57;12.40;99.90
68485;DHT22;55472;50.060;21.960;2023-10-08T00:49:27;12.30;99.90
68485;DHT22;55472;50.060;21.960;2023-10-08T00:52:15;12.30;99.90
68485;DHT22;55472;50.060;21.960;2023-10-08T00:54:43;12.30;99.90
68485;DHT22;55472;50.060;21.960;2023-10-08T00:57:29;12.20;99.90
68485;DHT22;55472;50.060;21.960;2023-10-08T00:59:56;12.20;99.90
68485;DHT22;55472;50.060;21.960;2023-10-08T01:02:26;12.20;99.90
68485;DHT22;55472;50.060;21.960;2023-10-08T01:04:56;12.20;99.90
68485;DHT22;55472;50.060;21.960;2023-10-08T01:07:23;12.20;99.90
68485;DHT22;55472;50.060;21.960;2023-10-08T01:09:50;12.10;99.90
68485;DHT22;55472;50.060;21.960;2023-10-08T01:12:21;12.10;99.90
68485;DHT22;55472;50.060;21.960;2023-10-08T01:14:56;12.10;99.90
68485;DHT22;55472;50.060;21.960;2023-10-08T01:17:39;12.10;99.90
68485;DHT22;55472;50.060;21.960;2023-10-08T01:20:18;12.10;99.90
68485;DHT22;55472;50.060;21.960;2023-10-08T01:23:10;12.10;99.90
68485;DHT22;55472;50.060;21.960;2023-10-08T01:25:46;12.00;99.90
68485;DHT22;55472;50.060;21.960;2023-10-08T01:28:35;12.00;99.90
68485;DHT22;55472;50.060;21.960;2023-10-08T01:31:02;12.00;99.90
68485;DHT22;55472;50.060;21.960;2023-10-08T01:33:30;12.00;99.90
68485;DHT22;55472;50.060;21.960;2023-10-08T01:35:58;12.00;99.90
68485;DHT22;55472;50.060;21.960;2023-10-08T01:38:31;12.00;99.90
68485;DHT22;55472;50.060;21.960;2023-10-08T01:41:01;11.90;99.90
68485;DHT22;55472;50.060;21.960;2023-10-08T01:43:44;12.00;99.90
68485;DHT22;55472;50.060;21.960;2023-10-08T01:46:11;11.90;99.90
68485;DHT22;55472;50.060;21.960;2023-10-08T01:48:38;11.90;99.90
68485;DHT22;55472;50.060;21.960;2023-10-08T01:51:05;11.90;99.90
68485;DHT22;55472;50.060;21.960;2023-10-08T01:53:35;11.90;99.90
68485;DHT22;55472;50.060;21.960;2023-10-08T01:56:02;11.80;99.90
68485;DHT22;55472;50.060;21.960;2023-10-08T01:58:30;11.80;99.90
68485;DHT22;55472;50.060;21.960;2023-10-08T02:00:56;11.80;99.90
68485;DHT22;55472;50.060;21.960;2023-10-08T02:03:26;11.70;99.90
68485;DHT22;55472;50.060;21.960;2023-10-08T02:05:56;11.70;99.90
68485;DHT22;55472;50.060;21.960;2023-10-08T02:08:25;11.70;99.90
68485;DHT22;55472;50.060;21.960;2023-10-08T02:10:56;11.70;99.90
68485;DHT22;55472;50.060;21.960;2023-10-08T02:13:22;11.70;99.90
68485;DHT22;55472;50.060;21.960;2023-10-08T02:15:51;11.70;99.90
68485;DHT22;55472;50.060;21.960;2023-10-08T02:18:18;11.60;99.90
68485;DHT22;55472;50.060;21.960;2023-10-08T02:20:45;11.60;99.90
68485;DHT22;55472;50.060;21.960;2023-10-08T02:23:11;11.60;99.90
68485;DHT22;55472;50.060;21.960;2023-10-08T02:25:39;11.60;99.90
68485;DHT22;55472;50.060;21.960;2023-10-08T02:28:09;11.60;99.90
68485;DHT22;55472;50.060;21.960;2023-10-08T02:30:36;11.50;99.90
68485;DHT22;55472;50.060;21.960;2023-10-08T02:33:02;11.50;99.90
68485;DHT22;55472;50.060;21.960;2023-10-08T02:35:29;11.60;99.90
68485;DHT22;55472;50.060;21.960;2023-10-08T02:37:55;11.60;99.90
68485;DHT22;55472;50.060;21.960;2023-10-08T02:40:21;11.60;99.90
68485;DHT22;55472;50.060;21.960;2023-10-08T02:42:54;11.50;99.90
68485;DHT22;55472;50.060;21.960;2023-10-08T02:45:28;11.60;99.90
68485;DHT22;55472;50.060;21.960;2023-10-08T02:47:55;11.50;99.90
68485;DHT22;55472;50.060;21.960;2023-10-08T02:50:24;11.50;99.90
68485;DHT22;55472;50.060;21.960;2023-10-08T02:52:52;11.40;99.90
68485;DHT22;55472;50.060;21.960;2023-10-08T02:55:19;11.40;99.90
68485;DHT22;55472;50.060;21.960;2023-10-08T02:58:00;11.40;99.90
68485;DHT22;55472;50.060;21.960;2023-10-08T03:00:31;11.30;99.90
68485;DHT22;55472;50.060;21.960;2023-10-08T03:03:03;11.30;99.90
68485;DHT22;55472;50.060;21.960;2023-10-08T03:05:36;11.30;99.90
68485;DHT22;55472;50.060;21.960;2023-10-08T03:08:03;11.30;99.90
68485;DHT22;55472;50.060;21.960;2023-10-08T03:10:40;11.20;99.90
68485;DHT22;55472;50.060;21.960;2023-10-08T03:13:08;11.10;99.90
68485;DHT22;55472;50.060;21.960;2023-10-08T03:15:36;11.10;99.90
68485;DHT22;55472;50.060;21.960;2023-10-08T03:18:07;11.00;99.90
68485;DHT22;55472;50.060;21.960;2023-10-08T03:20:37;10.90;99.90
68485;DHT22;55472;50.060;21.960;2023-10-08T03:23:15;10.90;99.90
68485;DHT22;55472;50.060;21.960;2023-10-08T03:26:01;10.90;99.90
68485;DHT22;55472;50.060;21.960;2023-10-08T03:28:36;10.90;99.90
68485;DHT22;55472;50.060;21.960;2023-10-08T03:31:06;10.90;99.90
68485;DHT22;55472;50.060;21.960;2023-10-08T03:33:39;10.90;99.90
68485;DHT22;55472;50.060;21.960;2023-10-08T03:36:07;10.90;99.90
68485;DHT22;55472;50.060;21.960;2023-10-08T03:39:00;10.90;99.90
68485;DHT22;55472;50.060;21.960;2023-10-08T03:41:36;10.90;99.90
68485;DHT22;55472;50.060;21.960;2023-10-08T03:44:06;10.90;99.90
68485;DHT22;55472;50.060;21.960;2023-10-08T03:46:40;10.90;99.90
68485;DHT22;55472;50.060;21.960;2023-10-08T03:49:12;10.90;99.90
68485;DHT22;55472;50.060;21.960;2023-10-08T03:51:49;10.80;99.90
68485;DHT22;55472;50.060;21.960;2023-10-08T03:54:19;10.80;99.90
68485;DHT22;55472;50.060;21.960;2023-10-08T03:56:56;10.80;99.90
68485;DHT22;55472;50.060;21.960;2023-10-08T03:59:23;10.80;99.90
68485;DHT22;55472;50.060;21.960;2023-10-08T04:01:59;10.70;99.90
68485;DHT22;55472;50.060;21.960;2023-10-08T04:04:41;10.70;99.90
68485;DHT22;55472;50.060;21.960;2023-10-08T04:07:25;10.60;99.90
68485;DHT22;55472;50.060;21.960;2023-10-08T04:10:05;10.60;99.90
68485;DHT22;55472;50.060;21.960;2023-10-08T04:12:38;10.60;99.90
68485;DHT22;55472;50.060;21.960;2023-10-08T04:15:10;10.60;99.90
68485;DHT22;55472;50.060;21.960;2023-10-08T04:17:39;10.60;99.90
68485;DHT22;55472;50.060;21.960;2023-10-08T04:20:12;10.60;99.90
68485;DHT22;55472;50.060;21.960;2023-10-08T04:23:00;10.60;99.90
68485;DHT22;55472;50.060;21.960;2023-10-08T04:25:28;10.50;99.90
68485;DHT22;55472;50.060;21.960;2023-10-08T04:27:58;10.50;99.90
68485;DHT22;55472;50.060;21.960;2023-10-08T04:30:26;10.50;99.90
68485;DHT22;55472;50.060;21.960;2023-10-08T04:33:00;10.50;99.90
68485;DHT22;55472;50.060;21.960;2023-10-08T04:35:35;10.50;99.90
68485;DHT22;55472;50.060;21.960;2023-10-08T04:38:04;10.50;99.90
68485;DHT22;55472;50.060;21.960;2023-10-08T04:40:37;10.50;99.90
68485;DHT22;55472;50.060;21.960;2023-10-08T04:43:08;10.50;99.90
68485;DHT22;55472;50.060;21.960;2023-10-08T04:45:37;10.40;99.90
68485;DHT22;55472;50.060;21.960;2023-10-08T04:48:05;10.50;99.90
68485;DHT22;55472;50.060;21.960;2023-10-08T04:50:40;10.40;99.90
68485;DHT22;55472;50.060;21.960;2023-10-08T04:53:10;10.40;99.90
68485;DHT22;55472;50.060;21.960;2023-10-08T04:55:36;10.40;99.90
68485;DHT22;55472;50.060;21.960;2023-10-08T04:58:08;10.40;99.90
68485;DHT22;55472;50.060;21.960;2023-10-08T05:00:45;10.40;99.90
68485;DHT22;55472;50.060;21.960;2023-10-08T05:03:20;10.40;99.90
68485;DHT22;55472;50.060;21.960;2023-10-08T05:05:49;10.40;99.90
68485;DHT22;55472;50.060;21.960;2023-10-08T05:08:35;10.40;99.90
68485;DHT22;55472;50.060;21.960;2023-10-08T05:11:23;10.40;99.90
68485;DHT22;55472;50.060;21.960;2023-10-08T05:14:25;10.40;99.90
68485;DHT22;55472;50.060;21.960;2023-10-08T05:17:07;10.40;99.90
68485;DHT22;55472;50.060;21.960;2023-10-08T05:19:38;10.40;99.90
68485;DHT22;55472;50.060;21.960;2023-10-08T05:22:22;10.40;99.90
68485;DHT22;55472;50.060;21.960;2023-10-08T05:24:56;10.40;99.90
68485;DHT22;55472;50.060;21.960;2023-10-08T05:27:43;10.40;99.90
68485;DHT22;55472;50.060;21.960;2023-10-08T05:30:31;10.40;99.90
68485;DHT22;55472;50.060;21.960;2023-10-08T05:33:06;10.40;99.90
68485;DHT22;55472;50.060;21.960;2023-10-08T05:35:42;10.40;99.90
68485;DHT22;55472;50.060;21.960;2023-10-08T05:38:10;10.30;99.90
68485;DHT22;55472;50.060;21.960;2023-10-08T05:40:51;10.30;99.90
68485;DHT22;55472;50.060;21.960;2023-10-08T05:43:42;10.30;99.90
68485;DHT22;55472;50.060;21.960;2023-10-08T05:46:15;10.30;99.90
68485;DHT22;55472;50.060;21.960;2023-10-08T05:48:55;10.30;99.90
68485;DHT22;55472;50.060;21.960;2023-10-08T05:51:42;10.30;99.90
68485;DHT22;55472;50.060;21.960;2023-10-08T05:54:25;10.30;99.90
68485;DHT22;55472;50.060;21.960;2023-10-08T05:57:02;10.20;99.90
68485;DHT22;55472;50.060;21.960;2023-10-08T05:59:38;10.20;99.90
68485;DHT22;55472;50.060;21.960;2023-10-08T06:02:36;10.20;99.90
68485;DHT22;55472;50.060;21.960;2023-10-08T06:05:25;10.20;99.90
68485;DHT22;55472;50.060;21.960;2023-10-08T06:07:59;10.20;99.90
68485;DHT22;55472;50.060;21.960;2023-10-08T06:10:37;10.20;99.90
68485;DHT22;55472;50.060;21.960;2023-10-08T06:13:04;10.20;99.90
68485;DHT22;55472;50.060;21.960;2023-10-08T06:15:40;10.10;99.90
68485;DHT22;55472;50.060;21.960;2023-10-08T06:18:24;10.10;99.90
68485;DHT22;55472;50.060;21.960;2023-10-08T06:21:03;10.10;99.90
68485;DHT22;55472;50.060;21.960;2023-10-08T06:23:39;10.10;99.90
68485;DHT22;55472;50.060;21.960;2023-10-08T06:26:08;10.10;99.90
68485;DHT22;55472;50.060;21.960;2023-10-08T06:28:39;10.10;99.90
68485;DHT22;55472;50.060;21.960;2023-10-08T06:31:07;10.10;99.90
68485;DHT22;55472;50.060;21.960;2023-10-08T06:33:49;10.10;99.90
68485;DHT22;55472;50.060;21.960;2023-10-08T06:36:16;10.10;99.90
68485;DHT22;55472;50.060;21.960;2023-10-08T06:38:43;10.10;99.90
68485;DHT22;55472;50.060;21.960;2023-10-08T06:41:14;10.10;99.90
68485;DHT22;55472;50.060;21.960;2023-10-08T06:43:45;10.00;99.90
68485;DHT22;55472;50.060;21.960;2023-10-08T06:46:19;10.10;99.90
68485;DHT22;55472;50.060;21.960;2023-10-08T06:48:47;10.00;99.90
68485;DHT22;55472;50.060;21.960;2023-10-08T06:51:15;10.10;99.90
68485;DHT22;55472;50.060;21.960;2023-10-08T06:53:46;10.10;99.90
68485;DHT22;55472;50.060;21.960;2023-10-08T06:56:14;10.10;99.90
68485;DHT22;55472;50.060;21.960;2023-10-08T06:58:44;10.10;99.90
68485;DHT22;55472;50.060;21.960;2023-10-08T07:01:20;10.10;99.90
68485;DHT22;55472;50.060;21.960;2023-10-08T07:03:51;10.20;99.90
68485;DHT22;55472;50.060;21.960;2023-10-08T07:06:18;10.20;99.90
68485;DHT22;55472;50.060;21.960;2023-10-08T07:08:58;10.20;99.90
68485;DHT22;55472;50.060;21.960;2023-10-08T07:11:33;10.10;99.90
68485;DHT22;55472;50.060;21.960;2023-10-08T07:14:04;10.20;99.90
68485;DHT22;55472;50.060;21.960;2023-10-08T07:16:31;10.20;99.90
68485;DHT22;55472;50.060;21.960;2023-10-08T07:18:58;10.20;99.90
68485;DHT22;55472;50.060;21.960;2023-10-08T07:21:31;10.30;99.90
68485;DHT22;55472;50.060;21.960;2023-10-08T07:24:14;10.40;99.90
68485;DHT22;55472;50.060;21.960;2023-10-08T07:26:47;10.50;99.90
68485;DHT22;55472;50.060;21.960;2023-10-08T07:29:16;10.50;99.90
68485;DHT22;55472;50.060;21.960;2023-10-08T07:31:44;10.60;99.90
68485;DHT22;55472;50.060;21.960;2023-10-08T07:34:16;10.70;99.90
68485;DHT22;55472;50.060;21.960;2023-10-08T07:36:45;10.80;99.90
68485;DHT22;55472;50.060;21.960;2023-10-08T07:39:16;10.90;99.90
68485;DHT22;55472;50.060;21.960;2023-10-08T07:41:49;10.90;99.90
68485;DHT22;55472;50.060;21.960;2023-10-08T07:44:16;11.00;99.90
68485;DHT22;55472;50.060;21.960;2023-10-08T07:46:50;11.00;99.90
68485;DHT22;55472;50.060;21.960;2023-10-08T07:49:18;11.10;99.90
68485;DHT22;55472;50.060;21.960;2023-10-08T07:51:44;11.10;99.90
68485;DHT22;55472;50.060;21.960;2023-10-08T07:54:26;11.10;99.90
68485;DHT22;55472;50.060;21.960;2023-10-08T07:56:54;11.20;99.90
68485;DHT22;55472;50.060;21.960;2023-10-08T07:59:38;11.30;99.90
68485;DHT22;55472;50.060;21.960;2023-10-08T08:02:13;11.60;99.90
68485;DHT22;55472;50.060;21.960;2023-10-08T08:04:41;12.00;99.90
68485;DHT22;55472;50.060;21.960;2023-10-08T08:07:16;12.60;99.90
68485;DHT22;55472;50.060;21.960;2023-10-08T08:09:43;12.80;96.80
68485;DHT22;55472;50.060;21.960;2023-10-08T08:12:22;13.00;94.70
68485;DHT22;55472;50.060;21.960;2023-10-08T08:14:51;13.90;93.40
68485;DHT22;55472;50.060;21.960;2023-10-08T08:17:18;15.30;89.60
68485;DHT22;55472;50.060;21.960;2023-10-08T08:19:46;16.80;78.90
68485;DHT22;55472;50.060;21.960;2023-10-08T08:22:14;18.80;75.30
68485;DHT22;55472;50.060;21.960;2023-10-08T08:24:48;21.40;67.20
68485;DHT22;55472;50.060;21.960;2023-10-08T08:27:19;21.90;64.20
68485;DHT22;55472;50.060;21.960;2023-10-08T08:29:58;22.10;61.30
68485;DHT22;55472;50.060;21.960;2023-10-08T08:32:36;21.60;63.20
68485;DHT22;55472;50.060;21.960;2023-10-08T08:35:08;23.20;58.90
68485;DHT22;55472;50.060;21.960;2023-10-08T08:37:35;22.40;59.70
68485;DHT22;55472;50.060;21.960;2023-10-08T08:40:05;21.30;61.10
68485;DHT22;55472;50.060;21.960;2023-10-08T08:42:51;19.90;64.10
68485;DHT22;55472;50.060;21.960;2023-10-08T08:45:24;18.60;64.70
68485;DHT22;55472;50.060;21.960;2023-10-08T08:47:50;17.50;66.70
68485;DHT22;55472;50.060;21.960;2023-10-08T08:50:20;18.30;68.50
68485;DHT22;55472;50.060;21.960;2023-10-08T08:52:47;21.20;62.50
68485;DHT22;55472;50.060;21.960;2023-10-08T08:55:13;24.10;55.80
68485;DHT22;55472;50.060;21.960;2023-10-08T08:57:46;25.50;50.90
68485;DHT22;55472;50.060;21.960;2023-10-08T09:00:14;27.80;47.60
68485;DHT22;55472;50.060;21.960;2023-10-08T09:02:45;27.60;46.70
68485;DHT22;55472;50.060;21.960;2023-10-08T09:05:13;28.20;47.10
68485;DHT22;55472;50.060;21.960;2023-10-08T09:07:58;28.20;45.70
68485;DHT22;55472;50.060;21.960;2023-10-08T09:10:29;27.20;47.00
68485;DHT22;55472;50.060;21.960;2023-10-08T09:13:13;26.20;46.50
68485;DHT22;55472;50.060;21.960;2023-10-08T09:15:40;24.50;50.10
68485;DHT22;55472;50.060;21.960;2023-10-08T09:18:07;23.00;51.50
68485;DHT22;55472;50.060;21.960;2023-10-08T09:20:38;21.60;55.10
68485;DHT22;55472;50.060;21.960;2023-10-08T09:23:11;20.60;57.00
68485;DHT22;55472;50.060;21.960;2023-10-08T09:25:40;19.60;58.20
68485;DHT22;55472;50.060;21.960;2023-10-08T09:28:10;18.70;60.40
68485;DHT22;55472;50.060;21.960;2023-10-08T09:30:39;18.00;63.00
68485;DHT22;55472;50.060;21.960;2023-10-08T09:33:11;19.10;60.80
68485;DHT22;55472;50.060;21.960;2023-10-08T09:35:38;19.50;60.30
68485;DHT22;55472;50.060;21.960;2023-10-08T09:38:07;20.40;59.00
68485;DHT22;55472;50.060;21.960;2023-10-08T09:40:41;21.70;55.70
68485;DHT22;55472;50.060;21.960;2023-10-08T09:43:13;22.00;53.20
68485;DHT22;55472;50.060;21.960;2023-10-08T09:46:00;22.00;54.40
68485;DHT22;55472;50.060;21.960;2023-10-08T09:48:36;21.90;55.40
68485;DHT22;55472;50.060;21.960;2023-10-08T09:51:05;21.60;54.60
68485;DHT22;55472;50.060;21.960;2023-10-08T09:53:40;21.20;54.60
68485;DHT22;55472;50.060;21.960;2023-10-08T09:56:18;20.90;55.10
68485;DHT22;55472;50.060;21.960;2023-10-08T09:58:46;20.40;55.50
68485;DHT22;55472;50.060;21.960;2023-10-08T10:01:24;19.90;55.00
68485;DHT22;55472;50.060;21.960;2023-10-08T10:04:23;19.40;56.00
68485;DHT22;55472;50.060;21.960;2023-10-08T10:07:08;18.70;56.80
68485;DHT22;55472;50.060;21.960;2023-10-08T10:09:44;18.10;57.60
68485;DHT22;55472;50.060;21.960;2023-10-08T10:15:27;17.40;61.90
68485;DHT22;55472;50.060;21.960;2023-10-08T10:18:16;17.40;58.20
68485;DHT22;55472;50.060;21.960;2023-10-08T10:23:45;17.00;61.50
68485;DHT22;55472;50.060;21.960;2023-10-08T10:26:24;17.00;59.60
68485;DHT22;55472;50.060;21.960;2023-10-08T10:31:42;17.20;57.30
68485;DHT22;55472;50.060;21.960;2023-10-08T10:34:21;17.20;57.30
68485;DHT22;55472;50.060;21.960;2023-10-08T10:36:59;17.10;57.40
68485;DHT22;55472;50.060;21.960;2023-10-08T10:39:35;17.00;56.90
68485;DHT22;55472;50.060;21.960;2023-10-08T10:42:06;16.90;58.50
68485;DHT22;55472;50.060;21.960;2023-10-08T10:44:44;16.90;57.30
68485;DHT22;55472;50.060;21.960;2023-10-08T10:47:10;16.80;59.10
68485;DHT22;55472;50.060;21.960;2023-10-08T10:49:51;16.80;59.40
68485;DHT22;55472;50.060;21.960;2023-10-08T10:52:25;16.70;59.10
68485;DHT22;55472;50.060;21.960;2023-10-08T10:55:03;16.60;56.90
68485;DHT22;55472;50.060;21.960;2023-10-08T11:00:20;16.50;57.70
68485;DHT22;55472;50.060;21.960;2023-10-08T11:02:59;16.80;58.10
68485;DHT22;55472;50.060;21.960;2023-10-08T11:05:58;17.10;55.70
68485;DHT22;55472;50.060;21.960;2023-10-08T11:08:26;17.40;55.90
68485;DHT22;55472;50.060;21.960;2023-10-08T11:11:00;17.60;55.00
68485;DHT22;55472;50.060;21.960;2023-10-08T11:13:33;17.70;53.20
68485;DHT22;55472;50.060;21.960;2023-10-08T11:16:07;17.70;51.40
68485;DHT22;55472;50.060;21.960;2023-10-08T11:18:45;17.50;51.90
68485;DHT22;55472;50.060;21.960;2023-10-08T11:21:17;17.20;50.80
68485;DHT22;55472;50.060;21.960;2023-10-08T11:23:49;16.90;51.80
68485;DHT22;55472;50.060;21.960;2023-10-08T11:26:23;16.70;52.80
68485;DHT22;55472;50.060;21.960;2023-10-08T11:28:58;16.70;52.40
68485;DHT22;55472;50.060;21.960;2023-10-08T11:31:28;16.90;50.10
68485;DHT22;55472;50.060;21.960;2023-10-08T11:33:59;17.00;49.00
68485;DHT22;55472;50.060;21.960;2023-10-08T11:36:27;17.20;53.50
68485;DHT22;55472;50.060;21.960;2023-10-08T11:39:09;17.40;51.30
68485;DHT22;55472;50.060;21.960;2023-10-08T11:41:39;17.60;49.00
68485;DHT22;55472;50.060;21.960;2023-10-08T11:44:16;17.60;46.40
68485;DHT22;55472;50.060;21.960;2023-10-08T11:46:46;17.80;46.00
68485;DHT22;55472;50.060;21.960;2023-10-08T11:49:17;17.90;45.60
68485;DHT22;55472;50.060;21.960;2023-10-08T11:51:45;18.10;44.60
68485;DHT22;55472;50.060;21.960;2023-10-08T11:54:12;18.20;44.70
68485;DHT22;55472;50.060;21.960;2023-10-08T11:56:39;18.30;43.40
68485;DHT22;55472;50.060;21.960;2023-10-08T11:59:05;18.40;43.90
68485;DHT22;55472;50.060;21.960;2023-10-08T12:01:35;18.50;44.60
68485;DHT22;55472;50.060;21.960;2023-10-08T12:04:03;18.60;45.60
68485;DHT22;55472;50.060;21.960;2023-10-08T12:06:31;18.70;45.10
68485;DHT22;55472;50.060;21.960;2023-10-08T12:08:58;18.70;44.10
68485;DHT22;55472;50.060;21.960;2023-10-08T12:11:26;18.70;44.30
68485;DHT22;55472;50.060;21.960;2023-10-08T12:13:58;18.60;45.00
68485;DHT22;55472;50.060;21.960;2023-10-08T12:16:26;18.70;45.20
68485;DHT22;55472;50.060;21.960;2023-10-08T12:18:56;18.50;45.70
68485;DHT22;55472;50.060;21.960;2023-10-08T12:21:26;18.30;46.20
68485;DHT22;55472;50.060;21.960;2023-10-08T12:23:58;18.00;47.50
68485;DHT22;55472;50.060;21.960;2023-10-08T12:26:24;17.90;48.20
68485;DHT22;55472;50.060;21.960;2023-10-08T12:28:51;17.70;48.30
68485;DHT22;55472;50.060;21.960;2023-10-08T12:31:20;17.70;45.60
68485;DHT22;55472;50.060;21.960;2023-10-08T12:33:53;17.70;45.40
68485;DHT22;55472;50.060;21.960;2023-10-08T12:36:26;17.60;43.70
68485;DHT22;55472;50.060;21.960;2023-10-08T12:38:58;17.60;42.90
68485;DHT22;55472;50.060;21.960;2023-10-08T12:41:25;17.50;43.10
68485;DHT22;55472;50.060;21.960;2023-10-08T12:43:54;17.50;43.20
68485;DHT22;55472;50.060;21.960;2023-10-08T12:46:21;17.40;43.00
68485;DHT22;55472;50.060;21.960;2023-10-08T12:48:51;17.40;42.20
68485;DHT22;55472;50.060;21.960;2023-10-08T12:51:23;17.30;43.10
68485;DHT22;55472;50.060;21.960;2023-10-08T12:53:54;17.30;42.00
68485;DHT22;55472;50.060;21.960;2023-10-08T12:56:46;17.30;43.00
68485;DHT22;55472;50.060;21.960;2023-10-08T12:59:15;17.30;45.10
68485;DHT22;55472;50.060;21.960;2023-10-08T13:01:50;17.20;46.60
68485;DHT22;55472;50.060;21.960;2023-10-08T13:04:18;17.20;46.40
68485;DHT22;55472;50.060;21.960;2023-10-08T13:06:55;17.30;46.90
68485;DHT22;55472;50.060;21.960;2023-10-08T13:09:23;17.10;44.10
68485;DHT22;55472;50.060;21.960;2023-10-08T13:11:50;17.00;43.50
68485;DHT22;55472;50.060;21.960;2023-10-08T13:14:16;17.00;44.40
68485;DHT22;55472;50.060;21.960;2023-10-08T13:16:42;16.80;42.90
68485;DHT22;55472;50.060;21.960;2023-10-08T13:19:11;16.80;44.60
68485;DHT22;55472;50.060;21.960;2023-10-08T13:21:37;16.70;44.50
68485;DHT22;55472;50.060;21.960;2023-10-08T13:24:04;16.60;45.10
68485;DHT22;55472;50.060;21.960;2023-10-08T13:26:35;16.50;46.40
68485;DHT22;55472;50.060;21.960;2023-10-08T13:29:03;16.50;47.00
68485;DHT22;55472;50.060;21.960;2023-10-08T13:31:31;16.40;47.50
68485;DHT22;55472;50.060;21.960;2023-10-08T13:34:02;16.40;47.90
68485;DHT22;55472;50.060;21.960;2023-10-08T13:36:30;16.40;48.70
68485;DHT22;55472;50.060;21.960;2023-10-08T13:38:56;16.30;47.00
68485;DHT22;55472;50.060;21.960;2023-10-08T13:41:22;16.30;45.60
68485;DHT22;55472;50.060;21.960;2023-10-08T13:43:51;16.20;46.00
68485;DHT22;55472;50.060;21.960;2023-10-08T13:46:19;16.10;46.60
68485;DHT22;55472;50.060;21.960;2023-10-08T13:48:49;16.00;44.90
68485;DHT22;55472;50.060;21.960;2023-10-08T13:51:20;15.90;44.60
68485;DHT22;55472;50.060;21.960;2023-10-08T13:53:57;15.80;45.80
68485;DHT22;55472;50.060;21.960;2023-10-08T13:56:27;15.70;47.20
68485;DHT22;55472;50.060;21.960;2023-10-08T13:58:57;15.60;46.90
68485;DHT22;55472;50.060;21.960;2023-10-08T14:01:39;15.50;47.80
68485;DHT22;55472;50.060;21.960;2023-10-08T14:04:12;15.40;46.60
68485;DHT22;55472;50.060;21.960;2023-10-08T14:06:43;15.30;46.70
68485;DHT22;55472;50.060;21.960;2023-10-08T14:09:18;15.20;46.70
68485;DHT22;55472;50.060;21.960;2023-10-08T14:11:57;15.10;46.60
68485;DHT22;55472;50.060;21.960;2023-10-08T14:14:23;15.10;46.70
68485;DHT22;55472;50.060;21.960;2023-10-08T14:16:56;15.00;46.40
68485;DHT22;55472;50.060;21.960;2023-10-08T14:19:26;15.00;46.60
68485;DHT22;55472;50.060;21.960;2023-10-08T14:22:06;14.90;47.20
68485;DHT22;55472;50.060;21.960;2023-10-08T14:24:39;14.90;48.10
68485;DHT22;55472;50.060;21.960;2023-10-08T14:27:06;14.90;48.00
68485;DHT22;55472;50.060;21.960;2023-10-08T14:29:39;15.00;48.60
68485;DHT22;55472;50.060;21.960;2023-10-08T14:32:16;14.90;48.40
68485;DHT22;55472;50.060;21.960;2023-10-08T14:34:41;14.90;48.80
68485;DHT22;55472;50.060;21.960;2023-10-08T14:37:34;14.80;48.80
68485;DHT22;55472;50.060;21.960;2023-10-08T14:40:18;14.70;48.50
68485;DHT22;55472;50.060;21.960;2023-10-08T14:43:03;14.50;48.40
68485;DHT22;55472;50.060;21.960;2023-10-08T14:45:30;14.40;49.50
68485;DHT22;55472;50.060;21.960;2023-10-08T14:47:59;14.30;50.30
68485;DHT22;55472;50.060;21.960;2023-10-08T14:50:26;14.20;50.40
68485;DHT22;55472;50.060;21.960;2023-10-08T14:53:04;14.00;50.10
68485;DHT22;55472;50.060;21.960;2023-10-08T14:55:31;13.90;51.00
68485;DHT22;55472;50.060;21.960;2023-10-08T14:58:01;13.70;51.00
68485;DHT22;55472;50.060;21.960;2023-10-08T15:00:34;13.60;50.80
68485;DHT22;55472;50.060;21.960;2023-10-08T15:03:04;13.40;51.50
68485;DHT22;55472;50.060;21.960;2023-10-08T15:05:31;13.30;52.40
68485;DHT22;55472;50.060;21.960;2023-10-08T15:07:57;13.10;52.40
68485;DHT22;55472;50.060;21.960;2023-10-08T15:10:23;13.00;52.50
68485;DHT22;55472;50.060;21.960;2023-10-08T15:12:51;12.90;53.10
68485;DHT22;55472;50.060;21.960;2023-10-08T15:15:19;12.80;54.10
68485;DHT22;55472;50.060;21.960;2023-10-08T15:17:47;12.70;55.40
68485;DHT22;55472;50.060;21.960;2023-10-08T15:20:15;12.60;54.40
68485;DHT22;55472;50.060;21.960;2023-10-08T15:22:43;12.40;53.50
68485;DHT22;55472;50.060;21.960;2023-10-08T15:25:11;12.30;54.40
68485;DHT22;55472;50.060;21.960;2023-10-08T15:27:38;12.20;54.60
68485;DHT22;55472;50.060;21.960;2023-10-08T15:30:09;12.10;53.60
68485;DHT22;55472;50.060;21.960;2023-10-08T15:32:38;12.00;53.90
68485;DHT22;55472;50.060;21.960;2023-10-08T15:35:10;11.80;55.10
68485;DHT22;55472;50.060;21.960;2023-10-08T15:37:38;11.80;55.60
68485;DHT22;55472;50.060;21.960;2023-10-08T15:40:05;11.70;56.80
68485;DHT22;55472;50.060;21.960;2023-10-08T15:42:36;11.60;57.70
68485;DHT22;55472;50.060;21.960;2023-10-08T15:45:03;11.60;57.70
68485;DHT22;55472;50.060;21.960;2023-10-08T15:47:31;11.50;58.00
68485;DHT22;55472;50.060;21.960;2023-10-08T15:49:58;11.40;58.70
68485;DHT22;55472;50.060;21.960;2023-10-08T15:52:25;11.30;59.30
68485;DHT22;55472;50.060;21.960;2023-10-08T15:54:51;11.20;59.50
68485;DHT22;55472;50.060;21.960;2023-10-08T15:57:17;11.10;59.10
68485;DHT22;55472;50.060;21.960;2023-10-08T15:59:43;11.00;59.20